createdAt,value
2022-10-01T00:00:00.404Z,24.8
2022-10-01T00:01:01.352Z,23.9
2022-10-01T00:02:00.403Z,23.9
2022-10-01T00:03:00.540Z,23.9
2022-10-01T00:04:00.329Z,23.9
2022-10-01T00:05:00.241Z,23.9
2022-10-01T00:06:02.765Z,23.8
2022-10-01T00:07:00.234Z,23.8
2022-10-01T00:08:00.225Z,23.8
2022-10-01T00:09:00.282Z,23.8
2022-10-01T00:10:00.214Z,23.8
2022-10-01T00:11:00.258Z,24.7
2022-10-01T00:12:00.259Z,24.7
2022-10-01T00:13:00.236Z,24.7
2022-10-01T00:14:00.227Z,24.7
2022-10-01T00:15:04.368Z,24.7
2022-10-01T00:16:03.744Z,25.5
2022-10-01T00:17:00.440Z,25.5
2022-10-01T00:18:00.251Z,25.5
2022-10-01T00:19:00.611Z,25.5
2022-10-01T00:20:00.833Z,25.5
2022-10-01T00:21:03.943Z,25.1
2022-10-01T00:22:00.232Z,25.1
2022-10-01T00:23:00.244Z,25.1
2022-10-01T00:24:03.168Z,25.1
2022-10-01T00:25:00.239Z,25.1
2022-10-01T00:26:09.884Z,24.7
2022-10-01T00:27:00.227Z,24.7
2022-10-01T00:28:00.435Z,24.7
2022-10-01T00:29:03.449Z,24.7
2022-10-01T00:30:00.612Z,24.7
2022-10-01T00:31:00.242Z,25.4
2022-10-01T00:32:00.375Z,25.4
2022-10-01T00:33:00.260Z,25.4
2022-10-01T00:34:01.072Z,25.4
2022-10-01T00:35:00.600Z,25.4
2022-10-01T00:36:00.518Z,26.7
2022-10-01T00:37:00.252Z,26.7
2022-10-01T00:38:00.259Z,26.7
2022-10-01T00:39:00.857Z,26.7
2022-10-01T00:40:00.410Z,26.7
2022-10-01T00:41:00.504Z,25.5
2022-10-01T00:42:00.223Z,25.5
2022-10-01T00:43:00.291Z,25.5
2022-10-01T00:44:11.887Z,25.5
2022-10-01T00:45:00.228Z,25.5
2022-10-01T00:46:08.053Z,25.3
2022-10-01T00:47:06.881Z,25.3
2022-10-01T00:48:00.415Z,25.3
2022-10-01T00:49:05.522Z,25.3
2022-10-01T00:50:04.402Z,25.3
2022-10-01T00:51:00.652Z,26.0
2022-10-01T00:52:04.943Z,26.0
2022-10-01T00:53:03.955Z,26.0
2022-10-01T00:54:07.382Z,26.0
2022-10-01T00:55:07.029Z,26.0
2022-10-01T00:56:00.482Z,32.6
2022-10-01T00:57:02.868Z,32.6
2022-10-01T00:58:00.245Z,32.6
2022-10-01T00:59:00.949Z,32.6
2022-10-01T01:00:04.762Z,32.6
2022-10-01T01:01:00.387Z,26.1
2022-10-01T01:02:00.313Z,26.1
2022-10-01T01:03:00.287Z,26.1
2022-10-01T01:04:00.349Z,26.1
2022-10-01T01:05:00.777Z,26.1
2022-10-01T01:06:00.265Z,25.6
2022-10-01T01:07:02.894Z,25.6
2022-10-01T01:08:01.163Z,25.6
2022-10-01T01:09:00.255Z,25.6
2022-10-01T01:10:01.411Z,25.6
2022-10-01T01:11:09.145Z,26.4
2022-10-01T01:12:20.130Z,26.4
2022-10-01T01:13:12.170Z,26.4
2022-10-01T01:14:09.212Z,26.4
2022-10-01T01:15:10.187Z,26.4
2022-10-01T01:16:12.370Z,27.1
2022-10-01T01:17:06.554Z,27.1
2022-10-01T01:18:14.455Z,27.1
2022-10-01T01:19:08.067Z,27.1
2022-10-01T01:20:08.050Z,27.1
2022-10-01T01:21:16.441Z,27.1
2022-10-01T01:22:05.479Z,27.1
2022-10-01T01:23:07.582Z,27.1
2022-10-01T01:24:20.135Z,27.1
2022-10-01T01:25:13.619Z,27.1
2022-10-01T01:26:11.967Z,27.0
2022-10-01T01:27:20.152Z,27.0
2022-10-01T01:28:16.428Z,27.0
2022-10-01T01:29:05.985Z,27.0
2022-10-01T01:30:02.000Z,27.0
2022-10-01T01:31:05.639Z,27.7
2022-10-01T01:32:11.428Z,27.7
2022-10-01T01:33:05.194Z,27.7
2022-10-01T01:34:04.669Z,27.7
2022-10-01T01:35:04.499Z,27.7
2022-10-01T01:36:04.998Z,26.6
2022-10-01T01:37:05.194Z,26.6
2022-10-01T01:38:06.000Z,26.6
2022-10-01T01:39:04.002Z,26.6
2022-10-01T01:40:02.382Z,26.6
2022-10-01T01:41:01.977Z,27.2
2022-10-01T01:42:05.278Z,27.2
2022-10-01T01:43:04.445Z,27.2
2022-10-01T01:44:03.658Z,27.2
2022-10-01T01:45:01.461Z,27.2
2022-10-01T01:46:04.268Z,26.5
2022-10-01T01:47:02.741Z,26.5
2022-10-01T01:48:01.407Z,26.5
2022-10-01T01:49:01.962Z,26.5
2022-10-01T01:50:01.887Z,26.5
2022-10-01T01:51:07.219Z,27.6
2022-10-01T01:52:11.686Z,27.6
2022-10-01T01:53:00.294Z,27.6
2022-10-01T01:54:00.539Z,27.6
2022-10-01T01:55:01.067Z,27.6
2022-10-01T01:56:00.635Z,27.4
2022-10-01T01:57:01.158Z,27.4
2022-10-01T01:58:00.232Z,27.4
2022-10-01T01:59:01.827Z,27.4
2022-10-01T02:00:00.632Z,27.4
2022-10-01T02:01:01.258Z,27.8
2022-10-01T02:02:00.583Z,27.8
2022-10-01T02:03:00.742Z,27.8
2022-10-01T02:04:04.457Z,27.8
2022-10-01T02:05:05.505Z,27.8
2022-10-01T02:06:17.857Z,28.2
2022-10-01T02:07:12.185Z,28.2
2022-10-01T02:08:07.604Z,28.2
2022-10-01T02:09:08.206Z,28.2
2022-10-01T02:10:10.853Z,28.2
2022-10-01T02:11:11.985Z,28.3
2022-10-01T02:12:19.507Z,28.3
2022-10-01T02:13:13.203Z,28.3
2022-10-01T02:14:17.531Z,28.3
2022-10-01T02:15:08.459Z,28.3
2022-10-01T02:16:11.312Z,30.5
2022-10-01T02:17:15.347Z,30.5
2022-10-01T02:18:10.352Z,30.5
2022-10-01T02:19:04.866Z,30.5
2022-10-01T02:20:06.839Z,30.5
2022-10-01T02:21:11.295Z,28.9
2022-10-01T02:22:10.419Z,28.9
2022-10-01T02:23:06.069Z,28.9
2022-10-01T02:24:05.947Z,28.9
2022-10-01T02:25:03.764Z,28.9
2022-10-01T02:26:07.059Z,28.5
2022-10-01T02:27:05.265Z,28.5
2022-10-01T02:28:07.119Z,28.5
2022-10-01T02:29:05.068Z,28.5
2022-10-01T02:30:05.034Z,28.5
2022-10-01T02:31:02.068Z,29.1
2022-10-01T02:32:01.339Z,29.1
2022-10-01T02:33:02.976Z,29.1
2022-10-01T02:34:02.416Z,29.1
2022-10-01T02:35:01.696Z,29.1
2022-10-01T02:36:03.678Z,28.4
2022-10-01T02:37:03.222Z,28.4
2022-10-01T02:38:04.809Z,28.4
2022-10-01T02:39:01.847Z,28.4
2022-10-01T02:40:04.177Z,28.4
2022-10-01T02:41:04.673Z,30.0
2022-10-01T02:42:02.978Z,30.0
2022-10-01T02:43:05.897Z,30.0
2022-10-01T02:44:05.776Z,30.0
2022-10-01T02:45:02.908Z,30.0
2022-10-01T02:46:07.336Z,32.0
2022-10-01T02:47:06.683Z,32.0
2022-10-01T02:48:04.839Z,32.0
2022-10-01T02:49:00.249Z,32.0
2022-10-01T02:50:02.597Z,32.0
2022-10-01T02:51:17.647Z,30.9
2022-10-01T02:52:06.737Z,30.9
2022-10-01T02:53:12.410Z,30.9
2022-10-01T02:54:07.156Z,30.9
2022-10-01T02:55:07.806Z,30.9
2022-10-01T02:56:02.199Z,29.8
2022-10-01T02:57:00.487Z,29.8
2022-10-01T02:58:00.496Z,29.8
2022-10-01T02:59:00.227Z,29.8
2022-10-01T03:00:04.254Z,29.8
2022-10-01T03:01:00.243Z,29.9
2022-10-01T03:02:00.360Z,29.9
2022-10-01T03:03:00.319Z,29.9
2022-10-01T03:04:00.383Z,29.9
2022-10-01T03:05:00.628Z,29.9
2022-10-01T03:06:00.476Z,29.7
2022-10-01T03:07:00.254Z,29.7
2022-10-01T03:08:00.382Z,29.7
2022-10-01T03:09:00.294Z,29.7
2022-10-01T03:10:01.820Z,29.7
2022-10-01T03:11:00.223Z,29.8
2022-10-01T03:12:00.538Z,29.8
2022-10-01T03:13:00.249Z,29.8
2022-10-01T03:14:00.250Z,29.8
2022-10-01T03:15:00.509Z,29.8
2022-10-01T03:16:00.489Z,29.8
2022-10-01T03:17:00.212Z,29.8
2022-10-01T03:18:00.237Z,29.8
2022-10-01T03:19:00.254Z,29.8
2022-10-01T03:20:00.429Z,29.8
2022-10-01T03:21:00.235Z,28.5
2022-10-01T03:22:00.373Z,28.5
2022-10-01T03:23:00.247Z,28.5
2022-10-01T03:24:00.292Z,28.5
2022-10-01T03:25:00.225Z,28.5
2022-10-01T03:26:00.334Z,28.8
2022-10-01T03:27:00.337Z,28.8
2022-10-01T03:28:00.433Z,28.8
2022-10-01T03:29:00.549Z,28.8
2022-10-01T03:30:00.254Z,28.8
2022-10-01T03:31:09.125Z,28.4
2022-10-01T03:32:00.263Z,28.4
2022-10-01T03:33:00.427Z,28.4
2022-10-01T03:34:00.218Z,28.4
2022-10-01T03:35:00.235Z,28.4
2022-10-01T03:36:01.233Z,28.1
2022-10-01T03:37:00.273Z,28.1
2022-10-01T03:38:00.334Z,28.1
2022-10-01T03:39:00.240Z,28.1
2022-10-01T03:40:00.489Z,28.1
2022-10-01T03:41:00.294Z,29.5
2022-10-01T03:42:00.351Z,29.5
2022-10-01T03:43:05.336Z,29.5
2022-10-01T03:44:00.647Z,29.5
2022-10-01T03:45:00.224Z,29.5
2022-10-01T03:46:00.577Z,27.4
2022-10-01T03:47:00.351Z,27.4
2022-10-01T03:48:00.496Z,27.4
2022-10-01T03:49:00.317Z,27.4
2022-10-01T03:50:00.303Z,27.4
2022-10-01T03:51:00.234Z,27.9
2022-10-01T03:52:00.576Z,27.9
2022-10-01T03:53:00.227Z,27.9
2022-10-01T03:54:00.260Z,27.9
2022-10-01T03:55:00.256Z,27.9
2022-10-01T03:56:01.112Z,27.9
2022-10-01T03:57:00.243Z,27.9
2022-10-01T03:58:00.236Z,27.9
2022-10-01T03:59:00.739Z,27.9
2022-10-01T04:00:00.742Z,27.9
2022-10-01T04:01:00.248Z,27.4
2022-10-01T04:02:00.394Z,27.4
2022-10-01T04:03:00.288Z,27.4
2022-10-01T04:04:00.667Z,27.4
2022-10-01T04:05:00.367Z,27.4
2022-10-01T04:06:00.231Z,26.9
2022-10-01T04:07:00.227Z,26.9
2022-10-01T04:08:00.249Z,26.9
2022-10-01T04:09:00.522Z,26.9
2022-10-01T04:10:00.471Z,26.9
2022-10-01T04:11:00.361Z,26.7
2022-10-01T04:12:00.396Z,26.7
2022-10-01T04:13:00.426Z,26.7
2022-10-01T04:14:00.242Z,26.7
2022-10-01T04:15:00.232Z,26.7
2022-10-01T04:16:01.181Z,25.9
2022-10-01T04:17:00.214Z,25.9
2022-10-01T04:18:01.071Z,25.9
2022-10-01T04:19:00.984Z,25.9
2022-10-01T04:20:00.464Z,25.9
2022-10-01T04:21:00.324Z,26.9
2022-10-01T04:22:00.297Z,26.9
2022-10-01T04:23:00.898Z,26.9
2022-10-01T04:24:00.408Z,26.9
2022-10-01T04:25:00.242Z,26.9
2022-10-01T04:26:01.126Z,26.5
2022-10-01T04:27:00.225Z,26.5
2022-10-01T04:28:02.242Z,26.5
2022-10-01T04:29:00.226Z,26.5
2022-10-01T04:30:00.267Z,26.5
2022-10-01T04:31:00.248Z,26.7
2022-10-01T04:32:00.331Z,26.7
2022-10-01T04:33:01.102Z,26.7
2022-10-01T04:34:00.434Z,26.7
2022-10-01T04:35:00.726Z,26.7
2022-10-01T04:36:00.426Z,27.9
2022-10-01T04:37:00.212Z,27.9
2022-10-01T04:38:02.068Z,27.9
2022-10-01T04:39:02.551Z,27.9
2022-10-01T04:40:00.468Z,27.9
2022-10-01T04:41:00.319Z,27.2
2022-10-01T04:42:00.231Z,27.2
2022-10-01T04:43:01.025Z,27.2
2022-10-01T04:44:00.617Z,27.2
2022-10-01T04:45:00.219Z,27.2
2022-10-01T04:46:00.241Z,28.2
2022-10-01T04:47:00.557Z,28.2
2022-10-01T04:48:00.432Z,28.2
2022-10-01T04:49:00.228Z,28.2
2022-10-01T04:50:00.237Z,28.2
2022-10-01T04:51:00.293Z,27.0
2022-10-01T04:52:00.350Z,27.0
2022-10-01T04:53:00.223Z,27.0
2022-10-01T04:54:00.222Z,27.0
2022-10-01T04:55:00.253Z,27.0
2022-10-01T04:56:00.430Z,26.1
2022-10-01T04:57:00.259Z,26.1
2022-10-01T04:58:00.228Z,26.1
2022-10-01T04:59:00.288Z,26.1
2022-10-01T05:00:00.932Z,26.1
2022-10-01T05:01:02.164Z,26.4
2022-10-01T05:02:00.313Z,26.4
2022-10-01T05:03:00.243Z,26.4
2022-10-01T05:04:00.450Z,26.4
2022-10-01T05:05:00.796Z,26.4
2022-10-01T05:06:00.400Z,26.9
2022-10-01T05:07:00.241Z,26.9
2022-10-01T05:08:00.607Z,26.9
2022-10-01T05:09:00.272Z,26.9
2022-10-01T05:10:00.311Z,26.9
2022-10-01T05:11:00.233Z,28.1
2022-10-01T05:12:00.403Z,28.1
2022-10-01T05:13:00.263Z,28.1
2022-10-01T05:14:00.252Z,28.1
2022-10-01T05:15:00.273Z,28.1
2022-10-01T05:16:00.480Z,25.2
2022-10-01T05:17:00.222Z,25.2
2022-10-01T05:18:00.493Z,25.2
2022-10-01T05:19:00.224Z,25.2
2022-10-01T05:20:02.329Z,25.2
2022-10-01T05:21:04.642Z,24.7
2022-10-01T05:22:00.262Z,24.7
2022-10-01T05:23:00.206Z,24.7
2022-10-01T05:24:00.241Z,24.7
2022-10-01T05:25:00.469Z,24.7
2022-10-01T05:26:00.272Z,24.6
2022-10-01T05:27:00.507Z,24.6
2022-10-01T05:28:00.965Z,24.6
2022-10-01T05:29:00.300Z,24.6
2022-10-01T05:30:00.322Z,24.6
2022-10-01T05:31:01.180Z,23.1
2022-10-01T05:32:00.450Z,23.1
2022-10-01T05:33:04.303Z,23.1
2022-10-01T05:34:00.298Z,23.1
2022-10-01T05:35:00.222Z,23.1
2022-10-01T05:36:00.525Z,23.3
2022-10-01T05:37:01.053Z,23.3
2022-10-01T05:38:00.946Z,23.3
2022-10-01T05:39:00.433Z,23.3
2022-10-01T05:40:00.834Z,23.3
2022-10-01T05:41:00.219Z,22.1
2022-10-01T05:42:05.375Z,22.1
2022-10-01T05:43:00.713Z,22.1
2022-10-01T05:44:00.445Z,22.1
2022-10-01T05:45:00.314Z,22.1
2022-10-01T05:46:01.667Z,21.6
2022-10-01T05:47:00.218Z,21.6
2022-10-01T05:48:02.403Z,21.6
2022-10-01T05:49:00.287Z,21.6
2022-10-01T05:50:00.252Z,21.6
2022-10-01T05:51:00.231Z,22.8
2022-10-01T05:52:00.487Z,22.8
2022-10-01T05:53:01.443Z,22.8
2022-10-01T05:54:00.232Z,22.8
2022-10-01T05:55:00.250Z,21.3
2022-10-01T05:56:00.438Z,21.3
2022-10-01T05:57:00.224Z,21.3
2022-10-01T05:58:03.261Z,21.3
2022-10-01T05:59:00.277Z,21.3
2022-10-01T06:00:00.454Z,19.6
2022-10-01T06:01:00.217Z,19.6
2022-10-01T06:02:00.439Z,19.6
2022-10-01T06:03:01.833Z,19.6
2022-10-01T06:04:00.458Z,19.6
2022-10-01T06:05:00.231Z,19.4
2022-10-01T06:06:00.231Z,19.4
2022-10-01T06:07:00.220Z,19.4
2022-10-01T06:08:03.117Z,19.4
2022-10-01T06:09:00.284Z,19.4
2022-10-01T06:10:00.351Z,18.1
2022-10-01T06:11:01.468Z,18.1
2022-10-01T06:12:00.406Z,18.1
2022-10-01T06:13:00.253Z,18.1
2022-10-01T06:14:00.224Z,18.1
2022-10-01T06:15:00.230Z,16.7
2022-10-01T06:16:00.535Z,16.7
2022-10-01T06:17:00.222Z,16.7
2022-10-01T06:18:01.200Z,16.7
2022-10-01T06:19:00.283Z,16.7
2022-10-01T06:20:00.440Z,16.4
2022-10-01T06:21:00.238Z,16.4
2022-10-01T06:22:00.239Z,16.4
2022-10-01T06:23:00.273Z,16.4
2022-10-01T06:24:00.289Z,16.4
2022-10-01T06:25:00.230Z,16.4
2022-10-01T06:26:01.835Z,16.4
2022-10-01T06:27:00.224Z,16.4
2022-10-01T06:28:01.010Z,16.4
2022-10-01T06:29:00.261Z,16.4
2022-10-01T06:30:00.401Z,16.0
2022-10-01T06:31:01.304Z,16.0
2022-10-01T06:32:00.716Z,16.0
2022-10-01T06:33:02.832Z,16.0
2022-10-01T06:34:00.238Z,16.0
2022-10-01T06:35:00.269Z,15.0
2022-10-01T06:36:00.400Z,15.0
2022-10-01T06:37:00.374Z,15.0
2022-10-01T06:38:00.724Z,15.0
2022-10-01T06:39:00.347Z,15.0
2022-10-01T06:40:00.264Z,16.7
2022-10-01T06:41:01.583Z,16.7
2022-10-01T06:42:00.215Z,16.7
2022-10-01T06:43:00.221Z,16.7
2022-10-01T06:44:00.471Z,16.7
2022-10-01T06:45:00.238Z,15.7
2022-10-01T06:46:01.630Z,15.7
2022-10-01T06:47:00.284Z,15.7
2022-10-01T06:48:00.443Z,15.7
2022-10-01T06:49:00.222Z,15.7
2022-10-01T06:50:00.264Z,17.1
2022-10-01T06:51:00.228Z,17.1
2022-10-01T06:52:00.518Z,17.1
2022-10-01T06:53:00.831Z,17.1
2022-10-01T06:54:00.212Z,17.1
2022-10-01T06:55:00.235Z,16.4
2022-10-01T06:56:07.532Z,16.4
2022-10-01T06:57:00.223Z,16.4
2022-10-01T06:58:02.842Z,16.4
2022-10-01T06:59:00.209Z,16.4
2022-10-01T07:00:00.504Z,16.9
2022-10-01T07:01:01.873Z,16.9
2022-10-01T07:02:00.259Z,16.9
2022-10-01T07:03:00.800Z,16.9
2022-10-01T07:04:00.489Z,16.9
2022-10-01T07:05:00.226Z,14.4
2022-10-01T07:06:01.410Z,14.4
2022-10-01T07:07:00.217Z,14.4
2022-10-01T07:08:00.605Z,14.4
2022-10-01T07:09:00.249Z,14.4
2022-10-01T07:10:00.721Z,13.8
2022-10-01T07:11:01.210Z,13.8
2022-10-01T07:12:00.420Z,13.8
2022-10-01T07:13:11.455Z,13.8
2022-10-01T07:14:00.227Z,13.8
2022-10-01T07:15:00.464Z,13.3
2022-10-01T07:16:02.435Z,13.3
2022-10-01T07:17:00.225Z,13.3
2022-10-01T07:18:00.680Z,13.3
2022-10-01T07:19:00.230Z,13.3
2022-10-01T07:20:00.401Z,14.1
2022-10-01T07:21:00.230Z,14.1
2022-10-01T07:22:00.224Z,14.1
2022-10-01T07:23:01.077Z,14.1
2022-10-01T07:24:00.346Z,14.1
2022-10-01T07:25:00.266Z,13.5
2022-10-01T07:26:04.107Z,13.5
2022-10-01T07:27:05.046Z,13.5
2022-10-01T07:28:03.255Z,13.5
2022-10-01T07:29:00.386Z,13.5
2022-10-01T07:30:00.302Z,13.6
2022-10-01T07:31:00.205Z,13.6
2022-10-01T07:32:00.829Z,13.6
2022-10-01T07:33:00.222Z,13.6
2022-10-01T07:34:00.233Z,13.6
2022-10-01T07:35:00.649Z,12.8
2022-10-01T07:36:03.594Z,12.8
2022-10-01T07:37:00.533Z,12.8
2022-10-01T07:38:03.200Z,12.8
2022-10-01T07:39:00.235Z,12.8
2022-10-01T07:40:04.159Z,13.3
2022-10-01T07:41:01.292Z,13.3
2022-10-01T07:42:00.254Z,13.3
2022-10-01T07:43:00.239Z,13.3
2022-10-01T07:44:00.277Z,13.3
2022-10-01T07:45:00.266Z,13.8
2022-10-01T07:46:00.442Z,13.8
2022-10-01T07:47:00.257Z,13.8
2022-10-01T07:48:01.538Z,13.8
2022-10-01T07:49:00.229Z,13.8
2022-10-01T07:50:00.329Z,13.2
2022-10-01T07:51:00.232Z,13.2
2022-10-01T07:52:00.445Z,13.2
2022-10-01T07:53:00.323Z,13.2
2022-10-01T07:54:00.717Z,13.2
2022-10-01T07:55:00.311Z,13.2
2022-10-01T07:56:00.601Z,13.2
2022-10-01T07:57:00.238Z,13.2
2022-10-01T07:58:00.243Z,13.2
2022-10-01T07:59:00.539Z,13.2
2022-10-01T08:00:00.607Z,14.2
2022-10-01T08:01:03.533Z,14.2
2022-10-01T08:02:00.259Z,14.2
2022-10-01T08:03:00.605Z,14.2
2022-10-01T08:04:00.592Z,14.2
2022-10-01T08:05:00.221Z,13.8
2022-10-01T08:06:00.416Z,13.8
2022-10-01T08:07:00.296Z,13.8
2022-10-01T08:08:03.619Z,13.8
2022-10-01T08:09:00.225Z,13.8
2022-10-01T08:10:00.606Z,13.8
2022-10-01T08:11:01.421Z,13.8
2022-10-01T08:12:00.585Z,13.8
2022-10-01T08:13:02.802Z,13.8
2022-10-01T08:14:00.239Z,13.8
2022-10-01T08:15:00.469Z,13.9
2022-10-01T08:16:02.962Z,13.9
2022-10-01T08:17:00.314Z,13.9
2022-10-01T08:18:01.575Z,13.9
2022-10-01T08:19:00.207Z,13.9
2022-10-01T08:20:00.407Z,13.5
2022-10-01T08:21:00.674Z,13.5
2022-10-01T08:22:00.218Z,13.5
2022-10-01T08:23:01.963Z,13.5
2022-10-01T08:24:01.300Z,13.5
2022-10-01T08:25:00.262Z,13.5
2022-10-01T08:26:02.883Z,13.5
2022-10-01T08:27:00.232Z,13.5
2022-10-01T08:28:00.454Z,13.5
2022-10-01T08:29:00.518Z,13.5
2022-10-01T08:30:00.289Z,14.2
2022-10-01T08:31:05.771Z,14.2
2022-10-01T08:32:00.525Z,14.2
2022-10-01T08:33:00.754Z,14.2
2022-10-01T08:34:00.224Z,14.2
2022-10-01T08:35:00.282Z,14.4
2022-10-01T08:36:01.417Z,14.4
2022-10-01T08:37:00.456Z,14.4
2022-10-01T08:38:01.561Z,14.4
2022-10-01T08:39:00.212Z,14.4
2022-10-01T08:40:00.603Z,15.8
2022-10-01T08:41:18.275Z,15.8
2022-10-01T08:42:07.433Z,15.8
2022-10-01T08:43:04.375Z,15.8
2022-10-01T08:44:04.012Z,15.8
2022-10-01T08:45:05.441Z,15.9
2022-10-01T08:46:04.484Z,15.9
2022-10-01T08:47:07.275Z,15.9
2022-10-01T08:48:06.569Z,15.9
2022-10-01T08:49:16.476Z,15.9
2022-10-01T08:50:15.475Z,15.9
2022-10-01T08:51:09.280Z,15.9
2022-10-01T08:52:00.209Z,15.9
2022-10-01T08:53:05.591Z,15.9
2022-10-01T08:54:20.150Z,15.9
2022-10-01T08:55:09.174Z,15.0
2022-10-01T08:56:02.095Z,15.0
2022-10-01T08:57:03.779Z,15.0
2022-10-01T08:58:03.043Z,15.0
2022-10-01T08:59:12.839Z,15.0
2022-10-01T09:00:05.527Z,16.2
2022-10-01T09:01:00.262Z,16.2
2022-10-01T09:02:00.334Z,16.2
2022-10-01T09:03:04.879Z,16.2
2022-10-01T09:04:00.334Z,16.2
2022-10-01T09:05:09.322Z,15.5
2022-10-01T09:06:13.857Z,15.5
2022-10-01T09:07:19.011Z,15.5
2022-10-01T09:08:20.130Z,15.5
2022-10-01T09:09:20.130Z,15.5
2022-10-01T09:10:19.467Z,15.1
2022-10-01T09:11:05.978Z,15.1
2022-10-01T09:12:10.182Z,15.1
2022-10-01T09:13:17.808Z,15.1
2022-10-01T09:14:15.170Z,15.1
2022-10-01T09:15:10.736Z,13.4
2022-10-01T09:16:11.518Z,13.4
2022-10-01T09:17:08.844Z,13.4
2022-10-01T09:18:20.136Z,13.4
2022-10-01T09:19:13.311Z,13.4
2022-10-01T09:20:10.182Z,12.3
2022-10-01T09:21:00.313Z,12.3
2022-10-01T09:22:09.515Z,12.3
2022-10-01T09:23:18.577Z,12.3
2022-10-01T09:24:06.097Z,12.3
2022-10-01T09:25:10.843Z,11.9
2022-10-01T09:26:00.753Z,11.9
2022-10-01T09:27:00.320Z,11.9
2022-10-01T09:28:20.210Z,11.9
2022-10-01T09:29:01.971Z,11.9
2022-10-01T09:30:11.880Z,11.3
2022-10-01T09:31:15.402Z,11.3
2022-10-01T09:32:02.072Z,11.3
2022-10-01T09:33:08.521Z,11.3
2022-10-01T09:34:05.390Z,11.3
2022-10-01T09:35:06.761Z,11.9
2022-10-01T09:36:11.984Z,11.9
2022-10-01T09:37:18.016Z,11.9
2022-10-01T09:38:08.181Z,11.9
2022-10-01T09:39:14.192Z,11.9
2022-10-01T09:40:13.885Z,11.0
2022-10-01T09:41:01.009Z,11.0
2022-10-01T09:42:00.322Z,11.0
2022-10-01T09:43:03.567Z,11.0
2022-10-01T09:44:00.335Z,11.0
2022-10-01T09:45:00.544Z,10.4
2022-10-01T09:46:02.767Z,10.4
2022-10-01T09:47:00.242Z,10.4
2022-10-01T09:48:12.837Z,10.4
2022-10-01T09:49:08.906Z,10.4
2022-10-01T09:50:03.718Z,10.0
2022-10-01T09:51:09.360Z,10.0
2022-10-01T09:52:04.873Z,10.0
2022-10-01T09:53:01.213Z,10.0
2022-10-01T09:54:06.181Z,10.0
2022-10-01T09:55:09.750Z,9.6
2022-10-01T09:56:08.176Z,9.6
2022-10-01T09:57:08.354Z,9.6
2022-10-01T09:58:12.298Z,9.6
2022-10-01T09:59:05.436Z,9.6
2022-10-01T10:00:08.929Z,9.6
2022-10-01T10:01:00.348Z,9.6
2022-10-01T10:02:02.607Z,9.6
2022-10-01T10:03:00.562Z,9.6
2022-10-01T10:04:00.237Z,9.6
2022-10-01T10:05:06.905Z,9.3
2022-10-01T10:06:00.546Z,9.3
2022-10-01T10:07:02.815Z,9.3
2022-10-01T10:08:09.944Z,9.3
2022-10-01T10:09:00.854Z,9.3
2022-10-01T10:10:15.278Z,8.9
2022-10-01T10:11:03.541Z,8.9
2022-10-01T10:12:01.418Z,8.9
2022-10-01T10:13:06.306Z,8.9
2022-10-01T10:14:01.502Z,8.9
2022-10-01T10:15:07.463Z,9.1
2022-10-01T10:16:07.287Z,9.1
2022-10-01T10:17:05.646Z,9.1
2022-10-01T10:18:11.695Z,9.1
2022-10-01T10:19:04.079Z,9.1
2022-10-01T10:20:00.494Z,9.2
2022-10-01T10:21:05.703Z,9.2
2022-10-01T10:22:11.428Z,9.2
2022-10-01T10:23:15.372Z,9.2
2022-10-01T10:24:03.145Z,9.2
2022-10-01T10:25:11.237Z,8.8
2022-10-01T10:26:03.575Z,8.8
2022-10-01T10:27:03.584Z,8.8
2022-10-01T10:28:00.318Z,8.8
2022-10-01T10:29:02.323Z,8.8
2022-10-01T10:30:04.907Z,8.6
2022-10-01T10:31:00.438Z,8.6
2022-10-01T10:32:05.935Z,8.6
2022-10-01T10:33:04.579Z,8.6
2022-10-01T10:34:15.152Z,8.6
2022-10-01T10:35:06.826Z,8.8
2022-10-01T10:36:03.707Z,8.8
2022-10-01T10:37:03.418Z,8.8
2022-10-01T10:38:00.282Z,8.8
2022-10-01T10:39:02.149Z,8.8
2022-10-01T10:40:01.430Z,8.7
2022-10-01T10:41:01.204Z,8.7
2022-10-01T10:42:01.731Z,8.7
2022-10-01T10:43:00.586Z,8.7
2022-10-01T10:44:05.062Z,8.7
2022-10-01T10:45:02.197Z,8.1
2022-10-01T10:46:01.082Z,8.1
2022-10-01T10:47:03.891Z,8.1
2022-10-01T10:48:03.337Z,8.1
2022-10-01T10:49:14.486Z,8.1
2022-10-01T10:50:03.932Z,7.7
2022-10-01T10:51:03.093Z,7.7
2022-10-01T10:52:00.932Z,7.7
2022-10-01T10:53:20.132Z,7.7
2022-10-01T10:54:01.097Z,7.7
2022-10-01T10:55:11.248Z,9.8
2022-10-01T10:56:02.820Z,9.8
2022-10-01T10:57:20.139Z,9.8
2022-10-01T10:58:09.405Z,9.8
2022-10-01T10:59:06.008Z,9.8
2022-10-01T11:00:03.919Z,8.2
2022-10-01T11:01:06.341Z,8.2
2022-10-01T11:02:03.587Z,8.2
2022-10-01T11:03:04.215Z,8.2
2022-10-01T11:04:00.524Z,8.2
2022-10-01T11:05:16.133Z,7.2
2022-10-01T11:06:08.872Z,7.2
2022-10-01T11:07:00.279Z,7.2
2022-10-01T11:08:03.937Z,7.2
2022-10-01T11:09:09.050Z,7.2
2022-10-01T11:10:17.641Z,7.8
2022-10-01T11:11:13.734Z,7.8
2022-10-01T11:12:17.591Z,7.8
2022-10-01T11:13:20.156Z,7.8
2022-10-01T11:14:23.420Z,7.8
2022-10-01T11:15:20.131Z,7.5
2022-10-01T11:16:16.651Z,7.5
2022-10-01T11:17:20.128Z,7.5
2022-10-01T11:18:10.173Z,7.5
2022-10-01T11:19:13.912Z,7.5
2022-10-01T11:20:10.190Z,7.0
2022-10-01T11:21:20.170Z,7.0
2022-10-01T11:22:10.173Z,7.0
2022-10-01T11:23:18.846Z,7.0
2022-10-01T11:24:13.543Z,7.0
2022-10-01T11:25:20.135Z,7.3
2022-10-01T11:26:08.890Z,7.3
2022-10-01T11:27:15.689Z,7.3
2022-10-01T11:28:20.234Z,7.3
2022-10-01T11:29:20.123Z,7.3
2022-10-01T11:30:06.587Z,6.3
2022-10-01T11:31:20.192Z,6.3
2022-10-01T11:32:10.199Z,6.3
2022-10-01T11:33:07.823Z,6.3
2022-10-01T11:34:10.186Z,6.3
2022-10-01T11:35:20.135Z,5.8
2022-10-01T11:36:14.066Z,5.8
2022-10-01T11:37:17.482Z,5.8
2022-10-01T11:38:17.682Z,5.8
2022-10-01T11:39:04.335Z,5.8
2022-10-01T11:40:13.354Z,4.9
2022-10-01T11:41:11.808Z,4.9
2022-10-01T11:42:06.954Z,4.9
2022-10-01T11:43:08.905Z,4.9
2022-10-01T11:44:05.012Z,4.9
2022-10-01T11:45:06.182Z,4.5
2022-10-01T11:46:08.795Z,4.5
2022-10-01T11:47:02.782Z,4.5
2022-10-01T11:48:07.981Z,4.5
2022-10-01T11:49:11.420Z,4.5
2022-10-01T11:50:06.254Z,4.9
2022-10-01T11:51:07.325Z,4.9
2022-10-01T11:52:11.699Z,4.9
2022-10-01T11:53:09.076Z,4.9
2022-10-01T11:54:06.330Z,4.9
2022-10-01T11:55:13.445Z,4.0
2022-10-01T11:56:09.247Z,4.0
2022-10-01T11:57:03.614Z,4.0
2022-10-01T11:58:13.617Z,4.0
2022-10-01T11:59:17.264Z,4.0
2022-10-01T12:00:07.264Z,3.9
2022-10-01T12:01:08.681Z,3.9
2022-10-01T12:02:05.903Z,3.9
2022-10-01T12:03:04.913Z,3.9
2022-10-01T12:04:13.675Z,3.9
2022-10-01T12:05:11.252Z,3.7
2022-10-01T12:06:01.346Z,3.7
2022-10-01T12:07:14.876Z,3.7
2022-10-01T12:08:05.386Z,3.7
2022-10-01T12:09:07.955Z,3.7
2022-10-01T12:10:20.130Z,4.0
2022-10-01T12:11:09.406Z,4.0
2022-10-01T12:12:06.056Z,4.0
2022-10-01T12:13:11.221Z,4.0
2022-10-01T12:14:04.994Z,4.0
2022-10-01T12:15:13.463Z,3.9
2022-10-01T12:16:10.752Z,3.9
2022-10-01T12:17:20.136Z,3.9
2022-10-01T12:18:12.182Z,3.9
2022-10-01T12:19:12.337Z,3.9
2022-10-01T12:20:02.657Z,3.8
2022-10-01T12:21:06.445Z,3.8
2022-10-01T12:22:11.550Z,3.8
2022-10-01T12:23:05.627Z,3.8
2022-10-01T12:24:05.124Z,3.8
2022-10-01T12:25:00.539Z,3.7
2022-10-01T12:26:10.185Z,3.7
2022-10-01T12:27:07.526Z,3.7
2022-10-01T12:28:08.799Z,3.7
2022-10-01T12:29:13.980Z,3.7
2022-10-01T12:30:09.872Z,3.7
2022-10-01T12:31:07.285Z,3.7
2022-10-01T12:32:15.387Z,3.7
2022-10-01T12:33:13.178Z,3.7
2022-10-01T12:34:20.150Z,3.7
2022-10-01T12:35:07.617Z,3.9
2022-10-01T12:36:17.989Z,3.9
2022-10-01T12:37:10.193Z,3.9
2022-10-01T12:38:20.140Z,3.9
2022-10-01T12:39:13.429Z,3.9
2022-10-01T12:40:13.440Z,3.8
2022-10-01T12:41:12.864Z,3.8
2022-10-01T12:42:20.139Z,3.8
2022-10-01T12:43:20.129Z,3.8
2022-10-01T12:44:17.478Z,3.8
2022-10-01T12:45:13.410Z,3.8
2022-10-01T12:46:11.235Z,3.8
2022-10-01T12:47:20.135Z,3.8
2022-10-01T12:48:13.442Z,3.8
2022-10-01T12:49:10.684Z,3.8
2022-10-01T12:50:15.280Z,3.7
2022-10-01T12:51:20.150Z,3.7
2022-10-01T12:52:11.199Z,3.7
2022-10-01T12:53:20.128Z,3.7
2022-10-01T12:54:13.614Z,3.7
2022-10-01T12:55:20.135Z,3.7
2022-10-01T12:56:12.269Z,3.7
2022-10-01T12:57:13.442Z,3.7
2022-10-01T12:58:10.173Z,3.7
2022-10-01T12:59:13.416Z,3.7
2022-10-01T13:00:09.908Z,3.8
2022-10-01T13:01:20.212Z,3.8
2022-10-01T13:02:10.234Z,3.8
2022-10-01T13:03:10.204Z,3.8
2022-10-01T13:04:10.064Z,3.8
2022-10-01T13:05:11.195Z,3.6
2022-10-01T13:06:17.705Z,3.6
2022-10-01T13:07:11.199Z,3.6
2022-10-01T13:08:00.212Z,3.6
2022-10-01T13:09:13.432Z,3.6
2022-10-01T13:10:13.461Z,3.4
2022-10-01T13:11:04.533Z,3.4
2022-10-01T13:12:11.521Z,3.4
2022-10-01T13:13:13.019Z,3.4
2022-10-01T13:14:00.957Z,3.4
2022-10-01T13:15:01.794Z,3.7
2022-10-01T13:16:08.825Z,3.7
2022-10-01T13:17:08.544Z,3.7
2022-10-01T13:18:09.011Z,3.7
2022-10-01T13:19:03.485Z,3.7
2022-10-01T13:20:07.569Z,3.4
2022-10-01T13:21:16.911Z,3.4
2022-10-01T13:22:15.315Z,3.4
2022-10-01T13:23:06.428Z,3.4
2022-10-01T13:24:11.195Z,3.4
2022-10-01T13:25:20.163Z,3.5